Country
Station

 

Weather  for  Monroe, Monroe Regional Airport  -  United States    United States

  
26 °C (79 °F)
    
 
 

Current METAR for Monroe, Monroe Regional Airport is :

KMLU 230953Z AUTO 21010KT 10SM CLR 26/24 A2985 RMK AO2 SLP105 T02610239

 

This is a report for Monroe, Monroe Regional Airport - United States.
 
The report was made 35 minutes ago, at 09:53 UTC .
The wind was blowing at a speed of 5.1 meters per second (11.5 miles per hour) from south/southwest (210°).
 
The temperature was 26 °C (79 °F), with a dew-point at 24 °C (75 °F).
The temperature felt like 28 °C (83 °F).
 
The atmospheric pressure was 1011 hPa (29.85 inHg).
The relative humidity was 88.8%.
 
The sky was clear.
 
The overall visibility was 16.1 kilometers (10.0 miles).
 

 
 
 
 

Country :   A   B   C   D   E   F   G   H   I   J   K   L   M   N   O   P   Q   R   S   T   U   V   W   Y   Z

 

Site Info  |  Disclaimer  |  Credits  |  Privacy
Contact us  |  Add to favorites
© 2013-2018 METARs - All rights reserved